sensor_id;sensor_type;location;lat;lon;timestamp;P1;durP1;ratioP1;P2;durP2;ratioP2
20431;SDS011;10375;49.136;10.366;2023-03-14T00:01:50;0.63;;;0.63;;
20431;SDS011;10375;49.136;10.366;2023-03-14T00:04:25;0.73;;;0.73;;
20431;SDS011;10375;49.136;10.366;2023-03-14T00:06:54;1.13;;;1.03;;
20431;SDS011;10375;49.136;10.366;2023-03-14T00:09:48;2.05;;;0.65;;
20431;SDS011;10375;49.136;10.366;2023-03-14T00:12:20;0.50;;;0.50;;
20431;SDS011;10375;49.136;10.366;2023-03-14T00:14:56;1.00;;;0.80;;
20431;SDS011;10375;49.136;10.366;2023-03-14T00:17:24;0.60;;;0.60;;
20431;SDS011;10375;49.136;10.366;2023-03-14T00:19:53;0.55;;;0.55;;
20431;SDS011;10375;49.136;10.366;2023-03-14T00:22:21;0.82;;;0.63;;
20431;SDS011;10375;49.136;10.366;2023-03-14T00:24:48;0.70;;;0.70;;
20431;SDS011;10375;49.136;10.366;2023-03-14T00:27:21;2.07;;;0.80;;
20431;SDS011;10375;49.136;10.366;2023-03-14T00:29:48;0.82;;;0.68;;
20431;SDS011;10375;49.136;10.366;2023-03-14T00:32:16;2.03;;;0.60;;
20431;SDS011;10375;49.136;10.366;2023-03-14T00:34:43;3.43;;;0.90;;
20431;SDS011;10375;49.136;10.366;2023-03-14T00:37:10;1.15;;;0.80;;
20431;SDS011;10375;49.136;10.366;2023-03-14T00:39:38;6.23;;;0.70;;
20431;SDS011;10375;49.136;10.366;2023-03-14T00:42:06;0.80;;;0.70;;
20431;SDS011;10375;49.136;10.366;2023-03-14T00:44:33;0.80;;;0.60;;
20431;SDS011;10375;49.136;10.366;2023-03-14T00:47:00;0.65;;;0.65;;
20431;SDS011;10375;49.136;10.366;2023-03-14T00:50:04;0.80;;;0.80;;
20431;SDS011;10375;49.136;10.366;2023-03-14T00:52:32;1.58;;;0.82;;
20431;SDS011;10375;49.136;10.366;2023-03-14T00:55:16;1.25;;;0.70;;
20431;SDS011;10375;49.136;10.366;2023-03-14T01:04:54;0.60;;;0.60;;
20431;SDS011;10375;49.136;10.366;2023-03-14T01:08:27;3.38;;;0.90;;
20431;SDS011;10375;49.136;10.366;2023-03-14T01:13:56;1.42;;;0.93;;
20431;SDS011;10375;49.136;10.366;2023-03-14T01:16:24;0.70;;;0.63;;
20431;SDS011;10375;49.136;10.366;2023-03-14T01:18:52;1.07;;;0.60;;
20431;SDS011;10375;49.136;10.366;2023-03-14T01:21:41;1.77;;;0.80;;
20431;SDS011;10375;49.136;10.366;2023-03-14T01:24:11;1.90;;;0.70;;
20431;SDS011;10375;49.136;10.366;2023-03-14T01:26:38;0.55;;;0.55;;
20431;SDS011;10375;49.136;10.366;2023-03-14T01:29:05;0.80;;;0.60;;
20431;SDS011;10375;49.136;10.366;2023-03-14T01:31:32;0.95;;;0.65;;
20431;SDS011;10375;49.136;10.366;2023-03-14T01:33:59;0.95;;;0.63;;
20431;SDS011;10375;49.136;10.366;2023-03-14T01:36:26;1.02;;;0.52;;
20431;SDS011;10375;49.136;10.366;2023-03-14T01:38:56;0.88;;;0.70;;
20431;SDS011;10375;49.136;10.366;2023-03-14T01:41:24;0.50;;;0.50;;
20431;SDS011;10375;49.136;10.366;2023-03-14T01:43:52;1.40;;;0.70;;
20431;SDS011;10375;49.136;10.366;2023-03-14T01:51:49;0.75;;;0.63;;
20431;SDS011;10375;49.136;10.366;2023-03-14T01:54:26;0.65;;;0.60;;
20431;SDS011;10375;49.136;10.366;2023-03-14T01:57:06;0.52;;;0.52;;
20431;SDS011;10375;49.136;10.366;2023-03-14T02:00:07;0.80;;;0.50;;
20431;SDS011;10375;49.136;10.366;2023-03-14T02:02:41;0.70;;;0.68;;
20431;SDS011;10375;49.136;10.366;2023-03-14T02:05:15;1.73;;;0.77;;
20431;SDS011;10375;49.136;10.366;2023-03-14T02:10:16;5.70;;;0.70;;
20431;SDS011;10375;49.136;10.366;2023-03-14T02:12:46;0.90;;;0.60;;
20431;SDS011;10375;49.136;10.366;2023-03-14T02:15:14;0.73;;;0.52;;
20431;SDS011;10375;49.136;10.366;2023-03-14T02:17:42;0.50;;;0.50;;
20431;SDS011;10375;49.136;10.366;2023-03-14T02:22:52;0.82;;;0.60;;
20431;SDS011;10375;49.136;10.366;2023-03-14T02:28:16;2.22;;;0.63;;
20431;SDS011;10375;49.136;10.366;2023-03-14T02:30:43;0.50;;;0.50;;
20431;SDS011;10375;49.136;10.366;2023-03-14T02:33:12;0.70;;;0.55;;
20431;SDS011;10375;49.136;10.366;2023-03-14T02:35:56;1.15;;;0.60;;
20431;SDS011;10375;49.136;10.366;2023-03-14T02:38:29;1.67;;;1.00;;
20431;SDS011;10375;49.136;10.366;2023-03-14T02:41:09;0.50;;;0.50;;
20431;SDS011;10375;49.136;10.366;2023-03-14T02:43:36;0.68;;;0.68;;
20431;SDS011;10375;49.136;10.366;2023-03-14T02:46:04;0.60;;;0.60;;
20431;SDS011;10375;49.136;10.366;2023-03-14T02:48:36;1.08;;;0.60;;
20431;SDS011;10375;49.136;10.366;2023-03-14T02:51:07;0.75;;;0.70;;
20431;SDS011;10375;49.136;10.366;2023-03-14T02:53:35;5.18;;;0.82;;
20431;SDS011;10375;49.136;10.366;2023-03-14T02:56:03;1.00;;;0.70;;
20431;SDS011;10375;49.136;10.366;2023-03-14T02:58:31;7.53;;;0.60;;
20431;SDS011;10375;49.136;10.366;2023-03-14T03:00:58;5.72;;;0.90;;
20431;SDS011;10375;49.136;10.366;2023-03-14T03:03:25;0.80;;;0.57;;
20431;SDS011;10375;49.136;10.366;2023-03-14T03:05:53;0.68;;;0.68;;
20431;SDS011;10375;49.136;10.366;2023-03-14T03:08:22;7.30;;;1.03;;
20431;SDS011;10375;49.136;10.366;2023-03-14T03:10:52;2.75;;;0.70;;
20431;SDS011;10375;49.136;10.366;2023-03-14T03:13:20;0.60;;;0.60;;
20431;SDS011;10375;49.136;10.366;2023-03-14T03:15:47;0.52;;;0.52;;
20431;SDS011;10375;49.136;10.366;2023-03-14T03:18:14;1.33;;;0.60;;
20431;SDS011;10375;49.136;10.366;2023-03-14T03:20:41;6.93;;;0.70;;
20431;SDS011;10375;49.136;10.366;2023-03-14T03:23:08;0.65;;;0.52;;
20431;SDS011;10375;49.136;10.366;2023-03-14T03:25:35;1.03;;;0.63;;
20431;SDS011;10375;49.136;10.366;2023-03-14T03:28:02;0.43;;;0.43;;
20431;SDS011;10375;49.136;10.366;2023-03-14T03:30:37;1.48;;;0.50;;
20431;SDS011;10375;49.136;10.366;2023-03-14T03:33:05;0.50;;;0.50;;
20431;SDS011;10375;49.136;10.366;2023-03-14T03:35:32;0.77;;;0.70;;
20431;SDS011;10375;49.136;10.366;2023-03-14T03:37:59;0.57;;;0.50;;
20431;SDS011;10375;49.136;10.366;2023-03-14T03:40:26;4.57;;;0.80;;
20431;SDS011;10375;49.136;10.366;2023-03-14T03:42:53;9.73;;;0.80;;
20431;SDS011;10375;49.136;10.366;2023-03-14T03:45:20;0.60;;;0.60;;
20431;SDS011;10375;49.136;10.366;2023-03-14T03:47:48;1.87;;;0.70;;
20431;SDS011;10375;49.136;10.366;2023-03-14T03:50:15;0.70;;;0.70;;
20431;SDS011;10375;49.136;10.366;2023-03-14T03:52:42;0.60;;;0.60;;
20431;SDS011;10375;49.136;10.366;2023-03-14T03:55:09;2.05;;;0.65;;
20431;SDS011;10375;49.136;10.366;2023-03-14T03:57:36;0.88;;;0.70;;
20431;SDS011;10375;49.136;10.366;2023-03-14T04:00:04;0.70;;;0.70;;
20431;SDS011;10375;49.136;10.366;2023-03-14T04:02:32;1.20;;;0.60;;
20431;SDS011;10375;49.136;10.366;2023-03-14T04:04:59;1.30;;;0.70;;
20431;SDS011;10375;49.136;10.366;2023-03-14T04:07:27;2.15;;;0.80;;
20431;SDS011;10375;49.136;10.366;2023-03-14T04:09:54;1.20;;;0.65;;
20431;SDS011;10375;49.136;10.366;2023-03-14T04:12:21;1.63;;;0.80;;
20431;SDS011;10375;49.136;10.366;2023-03-14T04:14:48;0.80;;;0.65;;
20431;SDS011;10375;49.136;10.366;2023-03-14T04:17:15;6.50;;;0.82;;
20431;SDS011;10375;49.136;10.366;2023-03-14T04:19:42;2.10;;;1.53;;
20431;SDS011;10375;49.136;10.366;2023-03-14T04:22:09;2.30;;;1.20;;
20431;SDS011;10375;49.136;10.366;2023-03-14T04:24:36;6.87;;;1.00;;
20431;SDS011;10375;49.136;10.366;2023-03-14T04:27:03;0.67;;;0.67;;
20431;SDS011;10375;49.136;10.366;2023-03-14T04:29:33;1.13;;;0.60;;
20431;SDS011;10375;49.136;10.366;2023-03-14T04:32:00;0.93;;;0.82;;
20431;SDS011;10375;49.136;10.366;2023-03-14T04:34:27;2.10;;;0.77;;
20431;SDS011;10375;49.136;10.366;2023-03-14T04:36:54;3.90;;;0.70;;
20431;SDS011;10375;49.136;10.366;2023-03-14T04:39:21;1.17;;;0.70;;
20431;SDS011;10375;49.136;10.366;2023-03-14T04:41:48;0.52;;;0.50;;
20431;SDS011;10375;49.136;10.366;2023-03-14T04:44:15;0.70;;;0.70;;
20431;SDS011;10375;49.136;10.366;2023-03-14T04:46:42;0.67;;;0.60;;
20431;SDS011;10375;49.136;10.366;2023-03-14T04:49:09;17.25;;;1.50;;
20431;SDS011;10375;49.136;10.366;2023-03-14T04:51:38;1.87;;;1.00;;
20431;SDS011;10375;49.136;10.366;2023-03-14T04:54:05;2.17;;;0.80;;
20431;SDS011;10375;49.136;10.366;2023-03-14T04:56:32;2.27;;;0.80;;
20431;SDS011;10375;49.136;10.366;2023-03-14T04:58:59;1.63;;;0.90;;
20431;SDS011;10375;49.136;10.366;2023-03-14T05:01:26;1.17;;;0.90;;
20431;SDS011;10375;49.136;10.366;2023-03-14T05:03:53;2.67;;;0.90;;
20431;SDS011;10375;49.136;10.366;2023-03-14T05:06:20;1.38;;;1.13;;
20431;SDS011;10375;49.136;10.366;2023-03-14T05:08:47;1.13;;;0.90;;
20431;SDS011;10375;49.136;10.366;2023-03-14T05:11:14;6.43;;;1.20;;
20431;SDS011;10375;49.136;10.366;2023-03-14T05:13:41;1.33;;;0.80;;
20431;SDS011;10375;49.136;10.366;2023-03-14T05:16:09;7.10;;;0.90;;
20431;SDS011;10375;49.136;10.366;2023-03-14T05:18:37;5.00;;;1.08;;
20431;SDS011;10375;49.136;10.366;2023-03-14T05:21:04;7.37;;;1.20;;
20431;SDS011;10375;49.136;10.366;2023-03-14T05:23:31;2.13;;;1.00;;
20431;SDS011;10375;49.136;10.366;2023-03-14T05:25:59;2.22;;;0.80;;
20431;SDS011;10375;49.136;10.366;2023-03-14T05:28:27;6.20;;;1.10;;
20431;SDS011;10375;49.136;10.366;2023-03-14T05:30:56;6.43;;;1.33;;
20431;SDS011;10375;49.136;10.366;2023-03-14T05:33:23;1.90;;;0.82;;
20431;SDS011;10375;49.136;10.366;2023-03-14T05:35:50;1.65;;;0.90;;
20431;SDS011;10375;49.136;10.366;2023-03-14T05:38:17;2.33;;;0.98;;
20431;SDS011;10375;49.136;10.366;2023-03-14T05:40:45;4.60;;;0.90;;
20431;SDS011;10375;49.136;10.366;2023-03-14T05:43:12;0.73;;;0.70;;
20431;SDS011;10375;49.136;10.366;2023-03-14T05:45:41;2.23;;;0.97;;
20431;SDS011;10375;49.136;10.366;2023-03-14T05:48:09;3.43;;;0.90;;
20431;SDS011;10375;49.136;10.366;2023-03-14T05:50:36;3.10;;;1.03;;
20431;SDS011;10375;49.136;10.366;2023-03-14T05:53:03;0.70;;;0.70;;
20431;SDS011;10375;49.136;10.366;2023-03-14T05:55:30;16.97;;;1.73;;
20431;SDS011;10375;49.136;10.366;2023-03-14T05:57:57;2.83;;;0.90;;
20431;SDS011;10375;49.136;10.366;2023-03-14T06:00:24;5.18;;;1.23;;
20431;SDS011;10375;49.136;10.366;2023-03-14T06:02:51;0.90;;;0.83;;
20431;SDS011;10375;49.136;10.366;2023-03-14T06:05:18;4.43;;;1.85;;
20431;SDS011;10375;49.136;10.366;2023-03-14T06:07:45;2.55;;;1.23;;
20431;SDS011;10375;49.136;10.366;2023-03-14T06:10:12;10.68;;;1.30;;
20431;SDS011;10375;49.136;10.366;2023-03-14T06:12:40;5.30;;;1.57;;
20431;SDS011;10375;49.136;10.366;2023-03-14T06:15:07;4.15;;;1.05;;
20431;SDS011;10375;49.136;10.366;2023-03-14T06:17:34;2.10;;;0.77;;
20431;SDS011;10375;49.136;10.366;2023-03-14T06:20:04;6.15;;;1.25;;
20431;SDS011;10375;49.136;10.366;2023-03-14T06:22:31;2.22;;;0.82;;
20431;SDS011;10375;49.136;10.366;2023-03-14T06:24:58;4.47;;;1.20;;
20431;SDS011;10375;49.136;10.366;2023-03-14T06:27:25;4.10;;;1.10;;
20431;SDS011;10375;49.136;10.366;2023-03-14T06:29:54;1.73;;;0.93;;
20431;SDS011;10375;49.136;10.366;2023-03-14T06:32:21;1.40;;;1.00;;
20431;SDS011;10375;49.136;10.366;2023-03-14T06:34:48;6.40;;;1.10;;
20431;SDS011;10375;49.136;10.366;2023-03-14T06:37:15;2.87;;;0.87;;
20431;SDS011;10375;49.136;10.366;2023-03-14T06:39:47;3.47;;;1.00;;
20431;SDS011;10375;49.136;10.366;2023-03-14T06:42:26;3.23;;;1.00;;
20431;SDS011;10375;49.136;10.366;2023-03-14T06:44:53;6.13;;;1.00;;
20431;SDS011;10375;49.136;10.366;2023-03-14T06:47:21;3.30;;;1.07;;
20431;SDS011;10375;49.136;10.366;2023-03-14T06:50:02;6.77;;;1.20;;
20431;SDS011;10375;49.136;10.366;2023-03-14T06:52:30;11.68;;;1.17;;
20431;SDS011;10375;49.136;10.366;2023-03-14T06:54:58;4.72;;;0.90;;
20431;SDS011;10375;49.136;10.366;2023-03-14T06:57:25;4.40;;;0.90;;
20431;SDS011;10375;49.136;10.366;2023-03-14T06:59:52;3.33;;;1.20;;
20431;SDS011;10375;49.136;10.366;2023-03-14T07:02:19;4.37;;;1.13;;
20431;SDS011;10375;49.136;10.366;2023-03-14T07:05:05;2.25;;;0.80;;
20431;SDS011;10375;49.136;10.366;2023-03-14T07:07:34;6.50;;;1.00;;
20431;SDS011;10375;49.136;10.366;2023-03-14T07:10:01;3.10;;;1.30;;
20431;SDS011;10375;49.136;10.366;2023-03-14T07:12:31;1.80;;;0.90;;
20431;SDS011;10375;49.136;10.366;2023-03-14T07:14:58;6.77;;;1.20;;
20431;SDS011;10375;49.136;10.366;2023-03-14T07:17:43;2.22;;;1.02;;
20431;SDS011;10375;49.136;10.366;2023-03-14T07:20:11;2.30;;;1.05;;
20431;SDS011;10375;49.136;10.366;2023-03-14T07:22:39;7.13;;;1.13;;
20431;SDS011;10375;49.136;10.366;2023-03-14T07:25:08;2.97;;;0.98;;
20431;SDS011;10375;49.136;10.366;2023-03-14T07:27:38;2.00;;;0.75;;
20431;SDS011;10375;49.136;10.366;2023-03-14T07:30:05;4.40;;;1.63;;
20431;SDS011;10375;49.136;10.366;2023-03-14T07:32:36;10.50;;;1.52;;
20431;SDS011;10375;49.136;10.366;2023-03-14T07:35:03;2.55;;;1.20;;
20431;SDS011;10375;49.136;10.366;2023-03-14T07:37:30;1.98;;;0.90;;
20431;SDS011;10375;49.136;10.366;2023-03-14T07:39:57;3.55;;;1.00;;
20431;SDS011;10375;49.136;10.366;2023-03-14T07:42:25;3.38;;;0.95;;
20431;SDS011;10375;49.136;10.366;2023-03-14T07:44:53;2.83;;;0.90;;
20431;SDS011;10375;49.136;10.366;2023-03-14T07:47:23;5.22;;;1.00;;
20431;SDS011;10375;49.136;10.366;2023-03-14T07:49:57;3.53;;;1.13;;
20431;SDS011;10375;49.136;10.366;2023-03-14T07:52:25;77.80;;;6.47;;
20431;SDS011;10375;49.136;10.366;2023-03-14T07:54:53;101.60;;;8.57;;
20431;SDS011;10375;49.136;10.366;2023-03-14T07:57:20;270.35;;;18.98;;
20431;SDS011;10375;49.136;10.366;2023-03-14T07:59:48;385.75;;;29.70;;
20431;SDS011;10375;49.136;10.366;2023-03-14T08:02:17;172.10;;;12.55;;
20431;SDS011;10375;49.136;10.366;2023-03-14T08:04:49;127.45;;;9.82;;
20431;SDS011;10375;49.136;10.366;2023-03-14T08:07:17;10.43;;;1.05;;
20431;SDS011;10375;49.136;10.366;2023-03-14T08:09:44;40.00;;;2.40;;
20431;SDS011;10375;49.136;10.366;2023-03-14T08:12:11;2.85;;;0.82;;
20431;SDS011;10375;49.136;10.366;2023-03-14T08:14:38;136.45;;;10.20;;
20431;SDS011;10375;49.136;10.366;2023-03-14T08:17:11;2.72;;;0.85;;
20431;SDS011;10375;49.136;10.366;2023-03-14T08:19:38;4.15;;;0.90;;
20431;SDS011;10375;49.136;10.366;2023-03-14T08:22:12;2.80;;;0.65;;
20431;SDS011;10375;49.136;10.366;2023-03-14T08:24:41;2.75;;;1.15;;
20431;SDS011;10375;49.136;10.366;2023-03-14T08:27:10;5.57;;;0.60;;
20431;SDS011;10375;49.136;10.366;2023-03-14T08:29:39;1.60;;;0.70;;
20431;SDS011;10375;49.136;10.366;2023-03-14T08:32:10;1.65;;;0.65;;
20431;SDS011;10375;49.136;10.366;2023-03-14T08:34:37;2.40;;;0.93;;
20431;SDS011;10375;49.136;10.366;2023-03-14T08:37:05;1.33;;;0.63;;
20431;SDS011;10375;49.136;10.366;2023-03-14T08:39:51;16.35;;;2.33;;
20431;SDS011;10375;49.136;10.366;2023-03-14T08:42:18;1.55;;;1.25;;
20431;SDS011;10375;49.136;10.366;2023-03-14T08:44:45;3.60;;;1.02;;
20431;SDS011;10375;49.136;10.366;2023-03-14T08:47:12;2.75;;;1.02;;
20431;SDS011;10375;49.136;10.366;2023-03-14T08:49:42;1.15;;;0.80;;
20431;SDS011;10375;49.136;10.366;2023-03-14T08:52:09;2.67;;;0.80;;
20431;SDS011;10375;49.136;10.366;2023-03-14T08:54:37;5.05;;;0.80;;
20431;SDS011;10375;49.136;10.366;2023-03-14T08:57:04;2.45;;;1.10;;
20431;SDS011;10375;49.136;10.366;2023-03-14T08:59:31;1.25;;;0.60;;
20431;SDS011;10375;49.136;10.366;2023-03-14T09:01:58;2.88;;;0.90;;
20431;SDS011;10375;49.136;10.366;2023-03-14T09:04:26;1.40;;;0.90;;
20431;SDS011;10375;49.136;10.366;2023-03-14T09:06:53;1.90;;;0.70;;
20431;SDS011;10375;49.136;10.366;2023-03-14T09:09:20;3.13;;;0.85;;
20431;SDS011;10375;49.136;10.366;2023-03-14T09:11:48;1.88;;;0.63;;
20431;SDS011;10375;49.136;10.366;2023-03-14T09:14:15;1.27;;;0.60;;
20431;SDS011;10375;49.136;10.366;2023-03-14T09:16:42;3.63;;;0.70;;
20431;SDS011;10375;49.136;10.366;2023-03-14T09:19:09;13.15;;;0.98;;
20431;SDS011;10375;49.136;10.366;2023-03-14T09:21:37;0.75;;;0.50;;
20431;SDS011;10375;49.136;10.366;2023-03-14T09:24:05;1.55;;;0.85;;
20431;SDS011;10375;49.136;10.366;2023-03-14T09:26:32;2.75;;;1.00;;
20431;SDS011;10375;49.136;10.366;2023-03-14T09:29:02;1.73;;;0.70;;
20431;SDS011;10375;49.136;10.366;2023-03-14T09:31:30;3.72;;;0.65;;
20431;SDS011;10375;49.136;10.366;2023-03-14T09:33:57;1.17;;;0.50;;
20431;SDS011;10375;49.136;10.366;2023-03-14T09:36:24;1.85;;;0.50;;
20431;SDS011;10375;49.136;10.366;2023-03-14T09:38:52;1.13;;;0.50;;
20431;SDS011;10375;49.136;10.366;2023-03-14T09:41:35;0.70;;;0.55;;
20431;SDS011;10375;49.136;10.366;2023-03-14T09:46:46;3.28;;;0.75;;
20431;SDS011;10375;49.136;10.366;2023-03-14T09:49:21;3.83;;;0.75;;
20431;SDS011;10375;49.136;10.366;2023-03-14T09:51:54;0.85;;;0.60;;
20431;SDS011;10375;49.136;10.366;2023-03-14T09:55:07;2.05;;;0.60;;
20431;SDS011;10375;49.136;10.366;2023-03-14T09:57:21;1.10;;;0.70;;
20431;SDS011;10375;49.136;10.366;2023-03-14T09:59:52;1.77;;;0.90;;
20431;SDS011;10375;49.136;10.366;2023-03-14T10:02:27;5.43;;;1.00;;
20431;SDS011;10375;49.136;10.366;2023-03-14T10:05:00;1.42;;;0.70;;
20431;SDS011;10375;49.136;10.366;2023-03-14T10:07:32;5.22;;;0.65;;
20431;SDS011;10375;49.136;10.366;2023-03-14T10:10:00;3.25;;;0.85;;
20431;SDS011;10375;49.136;10.366;2023-03-14T10:12:33;1.63;;;0.65;;
20431;SDS011;10375;49.136;10.366;2023-03-14T10:15:03;3.05;;;0.60;;
20431;SDS011;10375;49.136;10.366;2023-03-14T10:17:42;0.80;;;0.63;;
20431;SDS011;10375;49.136;10.366;2023-03-14T10:21:00;2.00;;;0.57;;
20431;SDS011;10375;49.136;10.366;2023-03-14T10:25:34;1.85;;;1.55;;
20431;SDS011;10375;49.136;10.366;2023-03-14T10:28:10;2.42;;;1.45;;
20431;SDS011;10375;49.136;10.366;2023-03-14T10:30:51;0.90;;;0.50;;
20431;SDS011;10375;49.136;10.366;2023-03-14T10:33:26;2.75;;;0.60;;
20431;SDS011;10375;49.136;10.366;2023-03-14T10:35:59;8.35;;;0.80;;
20431;SDS011;10375;49.136;10.366;2023-03-14T10:38:28;3.75;;;0.68;;
20431;SDS011;10375;49.136;10.366;2023-03-14T10:40:57;0.80;;;0.57;;
20431;SDS011;10375;49.136;10.366;2023-03-14T10:43:26;1.55;;;0.50;;
20431;SDS011;10375;49.136;10.366;2023-03-14T10:49:00;1.70;;;0.65;;
20431;SDS011;10375;49.136;10.366;2023-03-14T10:51:32;0.45;;;0.40;;
20431;SDS011;10375;49.136;10.366;2023-03-14T10:54:00;1.15;;;0.50;;
20431;SDS011;10375;49.136;10.366;2023-03-14T10:56:46;0.80;;;0.60;;
20431;SDS011;10375;49.136;10.366;2023-03-14T10:59:27;4.43;;;0.65;;
20431;SDS011;10375;49.136;10.366;2023-03-14T11:02:15;0.88;;;0.45;;
20431;SDS011;10375;49.136;10.366;2023-03-14T11:05:41;1.17;;;0.40;;
20431;SDS011;10375;49.136;10.366;2023-03-14T11:11:18;0.47;;;0.40;;
20431;SDS011;10375;49.136;10.366;2023-03-14T11:16:27;1.52;;;0.63;;
20431;SDS011;10375;49.136;10.366;2023-03-14T11:27:00;1.25;;;0.40;;
20431;SDS011;10375;49.136;10.366;2023-03-14T11:32:19;0.40;;;0.40;;
20431;SDS011;10375;49.136;10.366;2023-03-14T11:34:52;0.52;;;0.40;;
20431;SDS011;10375;49.136;10.366;2023-03-14T11:40:01;0.30;;;0.30;;
20431;SDS011;10375;49.136;10.366;2023-03-14T11:42:30;3.45;;;0.57;;
20431;SDS011;10375;49.136;10.366;2023-03-14T11:44:59;1.80;;;0.50;;
20431;SDS011;10375;49.136;10.366;2023-03-14T11:47:39;7.43;;;0.55;;
20431;SDS011;10375;49.136;10.366;2023-03-14T11:52:46;2.67;;;0.40;;
20431;SDS011;10375;49.136;10.366;2023-03-14T11:55:28;0.40;;;0.40;;
20431;SDS011;10375;49.136;10.366;2023-03-14T11:58:00;1.88;;;0.60;;
20431;SDS011;10375;49.136;10.366;2023-03-14T12:00:53;0.40;;;0.40;;
20431;SDS011;10375;49.136;10.366;2023-03-14T12:06:31;12.88;;;1.02;;
20431;SDS011;10375;49.136;10.366;2023-03-14T12:09:11;0.77;;;0.35;;
20431;SDS011;10375;49.136;10.366;2023-03-14T12:11:43;72.97;;;5.00;;
20431;SDS011;10375;49.136;10.366;2023-03-14T12:14:32;16.88;;;1.42;;
20431;SDS011;10375;49.136;10.366;2023-03-14T12:19:47;2.83;;;0.60;;
20431;SDS011;10375;49.136;10.366;2023-03-14T12:22:36;0.93;;;0.50;;
20431;SDS011;10375;49.136;10.366;2023-03-14T12:36:00;0.50;;;0.50;;
20431;SDS011;10375;49.136;10.366;2023-03-14T12:41:17;0.65;;;0.50;;
20431;SDS011;10375;49.136;10.366;2023-03-14T12:43:46;1.70;;;0.52;;
20431;SDS011;10375;49.136;10.366;2023-03-14T12:51:28;0.65;;;0.50;;
20431;SDS011;10375;49.136;10.366;2023-03-14T12:54:16;3.40;;;0.50;;
20431;SDS011;10375;49.136;10.366;2023-03-14T12:59:47;0.60;;;0.50;;
20431;SDS011;10375;49.136;10.366;2023-03-14T13:07:30;0.40;;;0.40;;
20431;SDS011;10375;49.136;10.366;2023-03-14T13:10:22;0.60;;;0.50;;
20431;SDS011;10375;49.136;10.366;2023-03-14T13:13:03;1.15;;;0.60;;
20431;SDS011;10375;49.136;10.366;2023-03-14T13:15:56;0.80;;;0.50;;
20431;SDS011;10375;49.136;10.366;2023-03-14T13:18:36;0.98;;;0.50;;
20431;SDS011;10375;49.136;10.366;2023-03-14T13:23:40;36.63;;;2.60;;
20431;SDS011;10375;49.136;10.366;2023-03-14T13:26:11;1.23;;;0.50;;
20431;SDS011;10375;49.136;10.366;2023-03-14T13:28:43;8.85;;;1.90;;
20431;SDS011;10375;49.136;10.366;2023-03-14T13:31:18;5.88;;;0.60;;
20431;SDS011;10375;49.136;10.366;2023-03-14T13:33:58;3.42;;;0.70;;
20431;SDS011;10375;49.136;10.366;2023-03-14T13:36:31;0.50;;;0.50;;
20431;SDS011;10375;49.136;10.366;2023-03-14T13:39:00;0.63;;;0.50;;
20431;SDS011;10375;49.136;10.366;2023-03-14T13:41:29;5.30;;;1.00;;
20431;SDS011;10375;49.136;10.366;2023-03-14T13:44:29;0.60;;;0.60;;
20431;SDS011;10375;49.136;10.366;2023-03-14T13:46:49;1.85;;;0.63;;
20431;SDS011;10375;49.136;10.366;2023-03-14T13:49:22;0.98;;;0.90;;
20431;SDS011;10375;49.136;10.366;2023-03-14T13:51:53;1.67;;;1.17;;
20431;SDS011;10375;49.136;10.366;2023-03-14T13:54:20;3.92;;;1.20;;
20431;SDS011;10375;49.136;10.366;2023-03-14T13:56:49;1.45;;;0.90;;
20431;SDS011;10375;49.136;10.366;2023-03-14T13:59:29;1.92;;;1.60;;
20431;SDS011;10375;49.136;10.366;2023-03-14T14:01:58;1.33;;;1.10;;
20431;SDS011;10375;49.136;10.366;2023-03-14T14:04:30;1.47;;;1.07;;
20431;SDS011;10375;49.136;10.366;2023-03-14T14:09:37;1.30;;;1.20;;
20431;SDS011;10375;49.136;10.366;2023-03-14T14:12:07;3.40;;;1.70;;
20431;SDS011;10375;49.136;10.366;2023-03-14T14:14:52;3.67;;;2.07;;
20431;SDS011;10375;49.136;10.366;2023-03-14T14:17:42;2.07;;;1.80;;
20431;SDS011;10375;49.136;10.366;2023-03-14T14:20:35;1.87;;;1.63;;
20431;SDS011;10375;49.136;10.366;2023-03-14T14:23:21;2.00;;;1.47;;
20431;SDS011;10375;49.136;10.366;2023-03-14T14:25:52;3.63;;;1.60;;
20431;SDS011;10375;49.136;10.366;2023-03-14T14:28:29;2.17;;;1.70;;
20431;SDS011;10375;49.136;10.366;2023-03-14T14:31:00;4.53;;;1.77;;
20431;SDS011;10375;49.136;10.366;2023-03-14T14:36:25;2.73;;;1.50;;
20431;SDS011;10375;49.136;10.366;2023-03-14T14:41:49;2.80;;;1.63;;
20431;SDS011;10375;49.136;10.366;2023-03-14T14:44:38;3.00;;;1.60;;
20431;SDS011;10375;49.136;10.366;2023-03-14T14:47:05;1.57;;;1.40;;
20431;SDS011;10375;49.136;10.366;2023-03-14T14:49:33;2.27;;;1.37;;
20431;SDS011;10375;49.136;10.366;2023-03-14T14:52:05;3.13;;;1.23;;
20431;SDS011;10375;49.136;10.366;2023-03-14T14:57:54;1.97;;;1.10;;
20431;SDS011;10375;49.136;10.366;2023-03-14T15:00:25;2.37;;;1.50;;
20431;SDS011;10375;49.136;10.366;2023-03-14T15:03:00;4.00;;;1.30;;
20431;SDS011;10375;49.136;10.366;2023-03-14T15:05:27;7.10;;;1.30;;
20431;SDS011;10375;49.136;10.366;2023-03-14T15:07:57;6.10;;;1.20;;
20431;SDS011;10375;49.136;10.366;2023-03-14T15:10:24;3.33;;;1.17;;
20431;SDS011;10375;49.136;10.366;2023-03-14T15:12:52;4.93;;;1.67;;
20431;SDS011;10375;49.136;10.366;2023-03-14T15:15:19;3.83;;;1.30;;
20431;SDS011;10375;49.136;10.366;2023-03-14T15:17:46;1.77;;;1.40;;
20431;SDS011;10375;49.136;10.366;2023-03-14T15:20:14;2.70;;;1.30;;
20431;SDS011;10375;49.136;10.366;2023-03-14T15:22:43;1.97;;;1.10;;
20431;SDS011;10375;49.136;10.366;2023-03-14T15:25:10;1.53;;;0.90;;
20431;SDS011;10375;49.136;10.366;2023-03-14T15:27:57;2.03;;;1.47;;
20431;SDS011;10375;49.136;10.366;2023-03-14T15:30:24;7.13;;;1.60;;
20431;SDS011;10375;49.136;10.366;2023-03-14T15:32:51;5.30;;;1.67;;
20431;SDS011;10375;49.136;10.366;2023-03-14T15:35:19;2.78;;;1.23;;
20431;SDS011;10375;49.136;10.366;2023-03-14T15:37:46;4.60;;;1.20;;
20431;SDS011;10375;49.136;10.366;2023-03-14T15:40:18;1.47;;;1.20;;
20431;SDS011;10375;49.136;10.366;2023-03-14T15:42:45;4.43;;;1.63;;
20431;SDS011;10375;49.136;10.366;2023-03-14T15:45:12;3.77;;;1.00;;
20431;SDS011;10375;49.136;10.366;2023-03-14T15:47:40;2.50;;;1.00;;
20431;SDS011;10375;49.136;10.366;2023-03-14T15:50:08;2.67;;;1.20;;
20431;SDS011;10375;49.136;10.366;2023-03-14T15:52:36;3.03;;;1.93;;
20431;SDS011;10375;49.136;10.366;2023-03-14T15:55:04;3.10;;;1.10;;
20431;SDS011;10375;49.136;10.366;2023-03-14T15:57:32;9.03;;;1.90;;
20431;SDS011;10375;49.136;10.366;2023-03-14T16:00:00;20.17;;;2.43;;
20431;SDS011;10375;49.136;10.366;2023-03-14T16:02:27;3.37;;;1.10;;
20431;SDS011;10375;49.136;10.366;2023-03-14T16:04:54;1.57;;;1.00;;
20431;SDS011;10375;49.136;10.366;2023-03-14T16:07:21;2.63;;;1.00;;
20431;SDS011;10375;49.136;10.366;2023-03-14T16:09:55;6.90;;;1.00;;
20431;SDS011;10375;49.136;10.366;2023-03-14T16:12:22;3.63;;;1.30;;
20431;SDS011;10375;49.136;10.366;2023-03-14T16:14:49;2.07;;;1.13;;
20431;SDS011;10375;49.136;10.366;2023-03-14T16:17:16;7.43;;;1.30;;
20431;SDS011;10375;49.136;10.366;2023-03-14T16:19:44;3.20;;;1.23;;
20431;SDS011;10375;49.136;10.366;2023-03-14T16:22:11;1.33;;;1.20;;
20431;SDS011;10375;49.136;10.366;2023-03-14T16:24:38;2.23;;;0.83;;
20431;SDS011;10375;49.136;10.366;2023-03-14T16:27:05;2.90;;;1.40;;
20431;SDS011;10375;49.136;10.366;2023-03-14T16:29:34;13.77;;;1.90;;
20431;SDS011;10375;49.136;10.366;2023-03-14T16:32:01;9.97;;;3.53;;
20431;SDS011;10375;49.136;10.366;2023-03-14T16:34:29;8.07;;;1.50;;
20431;SDS011;10375;49.136;10.366;2023-03-14T16:36:57;2.90;;;1.33;;